Search for airport 
image banner adimage banner adimage banner ad
image banner ad

5CA8 - Howard /Private/

Located in Ione, United States

ICAO - 5CA8, IATA -

Data provided by Airmate  

General information

Coordinates: N38°15'23" W120°55'54"
Elevation is 480 feet MSL.
Magnetic variation is 16° East
View others Airports in California

Operational data

Special qualification required
Current time UTC:
Current local time:
METAR: KJAQ 240755Z AUTO 31004KT 10SM CLR 17/12 A2999 RMK AO1 T01660116 402950122
View NOTAMs / SUP AIP / TFR affecting this airport [VIEW]
Communications frequencies: [VIEW]

Runways:

RWY identifierQFULength (ft)Width (ft)SurfaceLDA (ft)
07148140EARTH
25148140EARTH

Airport contact information

Address: Ione United States

Satellite view of 5CA8